Time;durP1;ratioP1;P1;durP2;ratioP2;P2;SDS_P1;SDS_P2;PMS_P1;PMS_P2;Temp;Humidity;BMP_temperature;BMP_pressure;BME280_temperature;BME280_humidity;BME280_pressure;Samples;Min_cycle;Max_cycle;Signal;HPM_P1;HPM_P2
2022/03/14 00:01:05;;;;;;;2.35;2.15;;;;;;;-146.64;100.00;39775.78;5002856;28;20045;-71
2022/03/14 00:03:45;;;;;;;4.15;2.25;;;;;;;-146.64;100.00;39786.03;5010413;28;20050;-72
2022/03/14 00:06:11;;;;;;;2.40;2.20;;;;;;;-146.64;100.00;39826.97;5012378;28;20033;-71
2022/03/14 00:08:41;;;;;;;2.65;2.45;;;;;;;-146.64;100.00;39847.44;5014021;28;20021;-72
2022/03/14 00:11:07;;;;;;;2.40;2.20;;;;;;;-146.64;100.00;39833.09;5019377;28;20029;-72
2022/03/14 00:13:33;;;;;;;2.40;1.98;;;;;;;-146.64;100.00;39710.28;5017155;28;20022;-72
2022/03/14 00:15:59;;;;;;;2.70;2.50;;;;;;;-146.64;100.00;39833.09;5011751;28;20025;-72
2022/03/14 00:18:30;;;;;;;2.43;2.23;;;;;;;-146.64;100.00;39853.56;5016869;28;20156;-72
2022/03/14 00:20:55;;;;;;;3.03;2.30;;;;;;;-146.64;100.00;39808.53;5010758;28;20029;-71
2022/03/14 00:23:21;;;;;;;2.70;2.50;;;;;;;-146.64;100.00;39837.19;5018701;28;20037;-72
2022/03/14 00:25:50;;;;;;;3.95;2.45;;;;;;;-146.64;100.00;39841.28;4997870;28;20025;-71
2022/03/14 00:28:15;;;;;;;2.60;2.40;;;;;;;-146.64;100.00;39816.72;5006137;28;20037;-72
2022/03/14 00:30:41;;;;;;;4.38;2.33;;;;;;;-146.64;100.00;39792.16;5003816;28;20030;-71
2022/03/14 00:33:06;;;;;;;3.08;2.78;;;;;;;-146.64;100.00;39847.44;5017848;28;20037;-72
2022/03/14 00:35:32;;;;;;;3.15;2.88;;;;;;;-146.64;100.00;39855.63;5002160;28;20535;-72
2022/03/14 00:37:58;;;;;;;2.83;2.58;;;;;;;-146.64;100.00;39853.56;5016899;28;20037;-72
2022/03/14 00:40:24;;;;;;;2.95;2.67;;;;;;;-146.64;100.00;39820.81;5011170;28;20034;-73
2022/03/14 00:42:50;;;;;;;2.92;2.28;;;;;;;-146.64;100.00;39845.38;4995428;28;20037;-71
2022/03/14 00:45:15;;;;;;;3.77;2.67;;;;;;;-146.64;100.00;39874.03;4991377;28;20466;-71
2022/03/14 00:47:41;;;;;;;2.88;2.60;;;;;;;-146.64;100.00;39878.13;5026225;28;20017;-72
2022/03/14 00:50:07;;;;;;;3.63;2.90;;;;;;;-146.64;100.00;39890.41;4998825;28;20425;-72
2022/03/14 00:52:32;;;;;;;3.60;2.70;;;;;;;-146.64;100.00;39890.41;5012414;28;20029;-72
2022/03/14 00:54:58;;;;;;;4.03;3.20;;;;;;;-146.64;100.00;39919.06;4998222;28;20535;-71
2022/03/14 00:57:24;;;;;;;2.92;2.60;;;;;;;-146.64;100.00;39939.53;5016424;28;20136;-71
2022/03/14 00:59:49;;;;;;;2.57;2.37;;;;;;;-146.64;100.00;39955.91;5013800;28;20041;-72
2022/03/14 01:02:15;;;;;;;2.65;2.45;;;;;;;-146.64;100.00;39931.34;5010785;28;20061;-71
2022/03/14 01:04:40;;;;;;;2.73;2.50;;;;;;;-146.64;100.00;39910.88;5012051;28;20041;-72
2022/03/14 01:07:06;;;;;;;3.42;3.08;;;;;;;-146.64;100.00;39976.38;5011877;28;20025;-72
2022/03/14 01:09:34;;;;;;;3.05;2.78;;;;;;;-146.64;100.00;39941.59;5011297;28;20025;-72
2022/03/14 01:12:00;;;;;;;5.45;2.70;;;;;;;-146.64;100.00;39966.16;5001523;28;20030;-72
2022/03/14 01:14:25;;;;;;;4.97;3.03;;;;;;;-146.64;100.00;40009.13;5007832;28;20022;-72
2022/03/14 01:16:52;;;;;;;4.30;2.83;;;;;;;-146.64;100.00;40025.50;4993575;28;20533;-72
2022/03/14 01:19:19;;;;;;;4.50;2.65;;;;;;;-146.64;100.00;40043.94;5009512;28;20037;-72
2022/03/14 01:21:45;;;;;;;3.55;2.55;;;;;;;-146.64;100.00;40115.56;5010842;28;20502;-71
2022/03/14 01:24:10;;;;;;;3.43;2.83;;;;;;;-146.64;100.00;40146.28;5011333;28;20022;-72
2022/03/14 01:26:37;;;;;;;4.28;2.75;;;;;;;-146.64;100.00;40107.38;5016805;28;20037;-72
2022/03/14 01:29:04;;;;;;;2.90;2.53;;;;;;;-146.64;100.00;40156.50;4995331;28;20477;-72
2022/03/14 01:31:29;;;;;;;3.35;2.88;;;;;;;-146.64;100.00;40181.09;4999890;28;20037;-72
2022/03/14 01:33:55;;;;;;;3.10;2.80;;;;;;;-146.64;100.00;40170.84;5009693;28;20025;-72
2022/03/14 01:36:20;;;;;;;4.15;2.80;;;;;;;-146.64;100.00;40160.63;5010530;28;20037;-72
2022/03/14 01:38:46;;;;;;;2.65;2.45;;;;;;;-146.64;100.00;40195.41;4993038;28;20022;-72
2022/03/14 01:41:16;;;;;;;4.03;2.80;;;;;;;-146.64;100.00;40197.47;5010686;28;20038;-72
2022/03/14 01:43:42;;;;;;;5.72;3.38;;;;;;;-146.64;100.00;40291.63;4994118;28;20120;-72
2022/03/14 01:46:07;;;;;;;3.92;2.95;;;;;;;-146.64;100.00;40357.13;5010769;28;20077;-72
2022/03/14 01:48:33;;;;;;;3.53;3.15;;;;;;;-146.64;100.00;40553.66;5010692;28;20039;-72
2022/03/14 01:50:58;;;;;;;2.92;2.67;;;;;;;-146.64;100.00;40688.78;5016870;28;20122;-72
2022/03/14 01:53:24;;;;;;;3.25;2.92;;;;;;;-146.64;100.00;40864.84;5003882;28;20032;-71
2022/03/14 01:55:50;;;;;;;3.85;2.83;;;;;;;-146.64;100.00;41131.03;4990044;28;20045;-71
2022/03/14 01:58:16;;;;;;;3.92;3.17;;;;;;;-146.64;100.00;41728.94;4991789;28;20061;-71
2022/03/14 02:00:43;;;;;;;4.47;3.15;;;;;;;-146.64;100.00;43127.88;5015501;28;20044;-71
2022/03/14 02:03:08;;;;;;;3.78;3.10;;;;;;;-146.64;100.00;46607.91;5008974;28;20057;-72
2022/03/14 02:05:36;;;;;;;4.10;3.58;;;;;;;-146.64;100.00;58725.81;4994830;28;20473;-71
2022/03/14 02:08:04;;;;;;;4.15;3.30;;;;;;;-146.64;100.00;69006.03;4994071;28;20056;-71
2022/03/14 02:10:30;;;;;;;3.80;3.40;;;;;;;-146.64;100.00;75081.16;5007561;28;20090;-74
2022/03/14 02:12:56;;;;;;;4.13;3.67;;;;;;;-146.64;100.00;80636.09;5011867;28;20489;-72
2022/03/14 02:15:21;;;;;;;4.93;3.87;;;;;;;-146.64;100.00;84343.66;4996895;28;20369;-72
2022/03/14 02:17:46;;;;;;;4.75;3.85;;;;;;;-146.64;100.00;86463.78;5016732;28;20033;-72
2022/03/14 02:20:12;;;;;;;4.38;3.97;;;;;;;-146.64;100.00;88585.03;5008825;28;20113;-72
2022/03/14 02:22:37;;;;;;;5.93;3.72;;;;;;;-146.64;100.00;90442.06;5011513;28;20018;-72
2022/03/14 02:25:08;;;;;;;4.72;4.22;;;;;;;-146.64;100.00;92299.94;5016414;28;20038;-72
2022/03/14 02:27:34;;;;;;;6.60;4.05;;;;;;;-146.64;100.00;92034.47;5014713;28;20128;-72
2022/03/14 02:29:59;;;;;;;7.25;3.88;;;;;;;-146.64;100.00;93096.44;5011607;28;20029;-72
2022/03/14 02:32:24;;;;;;;4.63;4.03;;;;;;;-146.64;100.00;93361.97;4992703;28;20034;-72
2022/03/14 02:34:50;;;;;;;5.03;4.45;;;;;;;-146.64;100.00;94424.25;5013248;28;20606;-72
2022/03/14 02:37:16;;;;;;;4.90;4.43;;;;;;;-146.64;100.00;93627.50;5015331;28;20428;-72
2022/03/14 02:39:41;;;;;;;5.15;4.50;;;;;;;-146.64;100.00;92565.41;4984749;28;20393;-72
2022/03/14 02:42:07;;;;;;;5.43;4.72;;;;;;;-146.64;100.00;92299.94;4998653;28;20025;-72
2022/03/14 02:44:34;;;;;;;6.90;6.00;;;;;;;-146.64;100.00;89911.41;5002724;28;20021;-73
2022/03/14 02:46:59;;;;;;;6.63;5.55;;;;;;;-146.64;100.00;85933.66;5021561;28;20057;-72
2022/03/14 02:49:24;;;;;;;6.72;5.82;;;;;;;-146.64;100.00;83548.88;5022189;28;20086;-72
2022/03/14 02:51:52;;;;;;;6.80;6.13;;;;;;;-146.64;100.00;82224.63;5009309;28;20048;-72
2022/03/14 02:54:19;;;;;;;6.05;5.45;;;;;;;-146.64;100.00;82754.28;5016297;28;20108;-72
2022/03/14 02:56:44;;;;;;;6.20;5.60;;;;;;;-146.64;100.00;83284.00;5011458;28;20036;-72
2022/03/14 02:59:10;;;;;;;6.50;5.82;;;;;;;-146.64;100.00;85668.59;5023118;28;20263;-72
2022/03/14 03:01:35;;;;;;;7.75;6.47;;;;;;;-146.64;100.00;92034.47;4998030;28;20052;-72
2022/03/14 03:04:01;;;;;;;6.65;5.95;;;;;;;-146.64;100.00;95221.19;4996902;28;20594;-72
2022/03/14 03:06:27;;;;;;;8.40;7.50;;;;;;;-146.64;100.00;100271.94;4996129;28;20463;-72
2022/03/14 03:08:54;;;;;;;7.88;7.18;;;;;;;-146.64;100.00;102932.75;5009632;28;20022;-73
2022/03/14 03:11:20;;;;;;;8.02;7.18;;;;;;;-146.64;100.00;105329.00;4978943;28;20083;-71
2022/03/14 03:13:47;;;;;;;8.15;7.35;;;;;;;-146.64;100.00;106394.44;5013148;28;20040;-73
2022/03/14 03:16:14;;;;;;;8.43;7.55;;;;;;;-146.64;100.00;107726.63;4994398;28;20034;-72
2022/03/14 03:18:40;;;;;;;7.38;6.68;;;;;;;-146.64;100.00;108526.16;5008073;28;20064;-72
2022/03/14 03:21:05;;;;;;;9.40;8.02;;;;;;;-146.64;100.00;109059.28;5029497;28;20026;-72
2022/03/14 03:23:33;;;;;;;7.80;7.07;;;;;;;-146.64;100.00;109325.84;4995339;28;20187;-72
2022/03/14 03:25:58;;;;;;;9.13;8.15;;;;;;;-146.64;100.00;109592.44;5019573;28;20093;-72
2022/03/14 03:28:24;;;;;;;8.70;7.90;;;;;;;-146.64;100.00;109592.44;5025841;28;20156;-72
2022/03/14 03:30:49;;;;;;;9.73;8.75;;;;;;;-146.64;100.00;110125.69;5016803;28;20021;-71
2022/03/14 03:33:15;;;;;;;9.32;8.35;;;;;;;-146.64;100.00;110659.00;5006179;28;20115;-71
2022/03/14 03:35:40;;;;;;;10.27;8.27;;;;;;;-146.64;100.00;110925.69;5034954;28;20030;-72
2022/03/14 03:38:06;;;;;;;10.23;8.95;;;;;;;-146.64;100.00;111725.84;5018795;28;20026;-72
2022/03/14 03:40:32;;;;;;;10.55;8.38;;;;;;;-146.64;100.00;112792.97;5011189;28;20030;-72
2022/03/14 03:42:57;;;;;;;10.48;9.20;;;;;;;-146.64;100.00;113593.50;5019198;28;20029;-73
2022/03/14 03:45:23;;;;;;;9.95;8.88;;;;;;;-146.64;100.00;114127.28;5028552;28;20037;-72
2022/03/14 03:47:48;;;;;;;15.93;10.00;;;;;;;-146.64;100.00;114928.06;5001185;28;20427;-72
2022/03/14 03:50:14;;;;;;;11.95;10.68;;;;;;;-146.64;100.00;115195.03;4990939;28;20034;-72
2022/03/14 03:52:40;;;;;;;13.88;10.65;;;;;;;-146.64;100.00;115996.03;5013658;28;20034;-72
2022/03/14 03:55:05;;;;;;;14.50;11.48;;;;;;;-146.64;100.00;116797.16;5003769;28;20508;-72
2022/03/14 03:57:31;;;;;;;13.10;10.30;;;;;;;-146.64;100.00;117598.47;4995233;28;20045;-72
2022/03/14 03:59:57;;;;;;;11.40;10.27;;;;;;;-146.64;100.00;117598.47;5017416;28;20117;-72
2022/03/14 04:02:23;;;;;;;12.43;10.77;;;;;;;-146.64;100.00;118132.78;5023821;28;20060;-72
2022/03/14 04:04:49;;;;;;;11.98;10.52;;;;;;;-146.64;100.00;118399.94;5003803;28;20029;-71
2022/03/14 04:07:18;;;;;;;12.88;10.63;;;;;;;-146.64;100.00;118399.94;5011850;28;20030;-72
2022/03/14 04:09:45;;;;;;;14.40;10.77;;;;;;;-146.64;100.00;118402.03;5016669;28;20392;-72
2022/03/14 04:12:11;;;;;;;12.55;10.80;;;;;;;-146.64;100.00;118402.03;5017705;28;20033;-72
2022/03/14 04:14:38;;;;;;;15.00;11.07;;;;;;;-146.64;100.00;118402.03;5011940;28;20026;-72
2022/03/14 04:17:04;;;;;;;14.50;10.70;;;;;;;-146.64;100.00;118402.03;5024907;28;20033;-72
2022/03/14 04:19:30;;;;;;;18.42;11.40;;;;;;;-146.64;100.00;118402.03;4995557;28;20026;-72
2022/03/14 04:21:56;;;;;;;16.73;11.60;;;;;;;-146.64;100.00;118402.03;5014604;28;20026;-72
2022/03/14 04:24:21;;;;;;;22.35;11.05;;;;;;;-146.64;100.00;118402.03;5007916;28;20361;-72
2022/03/14 04:26:47;;;;;;;13.83;11.30;;;;;;;-146.64;100.00;118402.03;5006776;28;20042;-72
2022/03/14 04:29:13;;;;;;;14.73;10.73;;;;;;;-146.64;100.00;118402.03;4992830;28;20525;-72
2022/03/14 04:31:38;;;;;;;13.88;11.27;;;;;;;-146.64;100.00;118402.03;5012028;28;20032;-72
2022/03/14 04:34:04;;;;;;;13.65;9.90;;;;;;;-146.64;100.00;118402.03;5005316;28;20120;-72
2022/03/14 04:36:29;;;;;;;15.63;9.43;;;;;;;-146.64;100.00;118402.03;5014279;28;20034;-72
2022/03/14 04:38:54;;;;;;;12.80;9.88;;;;;;;-146.64;100.00;118399.94;5010713;28;20041;-71
2022/03/14 04:41:21;;;;;;;13.82;9.57;;;;;;;-146.64;100.00;118399.94;5011096;28;20049;-72
2022/03/14 04:43:46;;;;;;;14.25;9.20;;;;;;;-146.64;100.00;118399.94;5007059;28;20083;-72
2022/03/14 04:46:12;;;;;;;11.18;8.68;;;;;;;-146.64;100.00;118132.78;4998264;28;20132;-72
2022/03/14 04:48:37;;;;;;;12.63;8.65;;;;;;;-146.64;100.00;117865.63;5027329;28;20396;-72
2022/03/14 04:51:03;;;;;;;14.68;9.80;;;;;;;-146.64;100.00;117865.63;5021193;28;20037;-72
2022/03/14 04:53:29;;;;;;;11.40;9.00;;;;;;;-146.64;100.00;117865.63;5021920;28;20026;-72
2022/03/14 04:55:55;;;;;;;14.05;8.98;;;;;;;-146.64;100.00;118132.78;5003080;28;20499;-72
2022/03/14 04:58:20;;;;;;;12.82;9.73;;;;;;;-146.64;100.00;118132.78;4991321;28;20034;-72
2022/03/14 05:00:47;;;;;;;10.93;9.73;;;;;;;-146.64;100.00;118132.78;5008409;28;20034;-72
2022/03/14 05:03:13;;;;;;;14.38;9.50;;;;;;;-146.64;100.00;117865.63;5021243;28;20412;-71
2022/03/14 05:05:39;;;;;;;14.75;10.32;;;;;;;-146.64;100.00;117865.63;4995230;28;20420;-72
2022/03/14 05:08:05;;;;;;;13.75;10.63;;;;;;;-146.64;100.00;117865.63;5012133;28;20112;-72
2022/03/14 05:10:30;;;;;;;15.53;10.30;;;;;;;-146.64;100.00;117865.63;5027549;28;20595;-72
2022/03/14 05:13:00;;;;;;;16.73;11.77;;;;;;;-146.64;100.00;117865.63;5019291;28;20034;-72
2022/03/14 05:15:26;;;;;;;17.42;12.65;;;;;;;-146.64;100.00;117865.63;5010221;28;20024;-72
2022/03/14 05:17:51;;;;;;;15.23;11.10;;;;;;;-146.64;100.00;118132.78;4981894;28;20034;-72
2022/03/14 05:20:16;;;;;;;16.17;12.32;;;;;;;-146.64;100.00;118132.78;5010074;28;20089;-71
2022/03/14 05:22:43;;;;;;;14.95;11.77;;;;;;;-146.64;100.00;118132.78;4993681;28;20030;-72
2022/03/14 05:25:12;;;;;;;17.15;12.10;;;;;;;-146.64;100.00;118399.94;5015961;28;20041;-72
2022/03/14 05:27:39;;;;;;;17.65;13.07;;;;;;;-146.64;100.00;118132.78;5022100;28;20046;-72
2022/03/14 05:30:08;;;;;;;17.10;13.18;;;;;;;-146.64;100.00;118132.78;5009178;28;20026;-71
2022/03/14 05:32:34;;;;;;;20.92;12.20;;;;;;;-146.64;100.00;118399.94;5015765;28;20132;-71
2022/03/14 05:35:00;;;;;;;15.50;12.32;;;;;;;-146.64;100.00;118132.78;4998412;28;20040;-72
2022/03/14 05:37:27;;;;;;;15.98;12.52;;;;;;;-146.64;100.00;118132.78;5023357;28;20053;-73
2022/03/14 05:39:52;;;;;;;;;;;;;;;-146.64;100.00;118132.78;5021497;28;20044;-72
2022/03/14 05:42:18;;;;;;;16.52;11.63;;;;;;;-146.64;100.00;118132.78;4993160;28;19913;-71
2022/03/14 05:44:45;;;;;;;20.98;13.65;;;;;;;-146.64;100.00;118399.94;5007911;28;20037;-72
2022/03/14 05:47:10;;;;;;;19.92;13.13;;;;;;;-146.64;100.00;118399.94;5019285;28;20108;-71
2022/03/14 05:49:36;;;;;;;20.88;15.25;;;;;;;-146.64;100.00;118132.78;5015331;28;20132;-71
2022/03/14 05:52:01;;;;;;;18.60;14.20;;;;;;;-146.64;100.00;118132.78;5010278;28;20033;-71
2022/03/14 05:54:27;;;;;;;19.38;14.63;;;;;;;-146.64;100.00;118132.78;5012369;28;20018;-72
2022/03/14 05:56:54;;;;;;;20.55;14.15;;;;;;;-146.64;100.00;117865.63;4987172;28;20152;-72
2022/03/14 05:59:19;;;;;;;17.65;14.05;;;;;;;-146.64;100.00;117865.63;4999492;28;20026;-72
2022/03/14 06:01:45;;;;;;;20.67;15.60;;;;;;;-146.64;100.00;117865.63;5017933;28;20615;-72
2022/03/14 06:04:11;;;;;;;18.73;15.00;;;;;;;-146.64;100.00;117865.63;5024255;28;20030;-71
2022/03/14 06:06:37;;;;;;;18.27;14.18;;;;;;;-146.64;100.00;117865.63;5002481;28;20401;-72
2022/03/14 06:09:02;;;;;;;20.42;14.05;;;;;;;-146.64;100.00;117865.63;5025235;28;20022;-70
2022/03/14 06:11:28;;;;;;;21.30;15.23;;;;;;;-146.64;100.00;117598.47;5016155;28;20037;-70
2022/03/14 06:13:53;;;;;;;25.00;15.93;;;;;;;-146.64;100.00;117331.34;5017422;28;20113;-71
2022/03/14 06:16:19;;;;;;;18.70;14.45;;;;;;;-146.64;100.00;117331.34;5015004;28;20029;-70
2022/03/14 06:18:44;;;;;;;20.08;14.65;;;;;;;-146.64;100.00;117331.34;5011488;28;20030;-70
2022/03/14 06:21:09;;;;;;;20.53;15.07;;;;;;;-146.64;100.00;117331.34;5008429;28;20025;-70
2022/03/14 06:23:35;;;;;;;29.58;15.57;;;;;;;-146.64;100.00;117331.34;5017167;28;20028;-70
2022/03/14 06:26:00;;;;;;;21.58;15.48;;;;;;;-146.64;100.00;117331.34;4992074;28;20034;-70
2022/03/14 06:28:27;;;;;;;18.38;15.00;;;;;;;-146.64;100.00;117331.34;5009633;28;20041;-74
2022/03/14 06:30:53;;;;;;;22.55;15.63;;;;;;;-146.64;100.00;117331.34;5025281;28;20042;-71
2022/03/14 06:33:19;;;;;;;20.17;13.85;;;;;;;-146.64;100.00;117064.25;4996313;28;20462;-72
2022/03/14 06:35:45;;;;;;;17.58;13.70;;;;;;;-146.64;100.00;117064.25;5025561;28;20033;-72
2022/03/14 06:38:11;;;;;;;22.70;14.63;;;;;;;-146.64;100.00;116797.16;5016582;28;20071;-70
2022/03/14 06:40:36;;;;;;;21.10;15.17;;;;;;;-146.64;100.00;116797.16;5021357;28;20037;-70
2022/03/14 06:43:03;;;;;;;21.85;15.52;;;;;;;-146.64;100.00;116797.16;5011919;28;20424;-70
2022/03/14 06:45:30;;;;;;;26.92;14.63;;;;;;;-146.64;100.00;116530.09;5011712;28;20037;-70
2022/03/14 06:47:56;;;;;;;21.95;14.48;;;;;;;-146.64;100.00;116263.06;5015406;28;20357;-70
2022/03/14 06:50:23;;;;;;;24.65;15.27;;;;;;;-146.64;100.00;116263.06;5012783;28;20025;-70
2022/03/14 06:52:48;;;;;;;20.48;14.30;;;;;;;-146.64;100.00;116263.06;4997278;28;20032;-71
2022/03/14 06:55:15;;;;;;;23.27;14.77;;;;;;;-146.64;100.00;115996.03;5014823;28;20100;-70
2022/03/14 06:57:40;;;;;;;23.02;15.18;;;;;;;-146.64;100.00;115996.03;5014476;28;20032;-70
2022/03/14 07:00:07;;;;;;;21.25;14.20;;;;;;;-146.64;100.00;115462.00;4994646;28;20041;-70
2022/03/14 07:02:38;;;;;;;19.60;14.25;;;;;;;-146.64;100.00;114928.06;5004686;28;20093;-70
2022/03/14 07:05:04;;;;;;;23.10;14.25;;;;;;;-146.64;100.00;114661.13;4993831;28;20120;-70
2022/03/14 07:07:29;;;;;;;23.40;13.45;;;;;;;-146.64;100.00;114127.28;5010805;28;20121;-70
2022/03/14 07:09:55;;;;;;;17.55;13.15;;;;;;;-146.64;100.00;113860.38;5013408;28;20072;-70
2022/03/14 07:12:20;;;;;;;18.65;13.55;;;;;;;-146.64;100.00;113593.50;5010719;28;20037;-70
2022/03/14 07:14:45;;;;;;;20.35;13.90;;;;;;;-146.64;100.00;112792.97;5007413;28;20030;-72
2022/03/14 07:17:11;;;;;;;19.88;12.98;;;;;;;-146.64;100.00;112259.38;5006484;28;20480;-72
2022/03/14 07:19:36;;;;;;;22.45;13.55;;;;;;;-146.64;100.00;111459.13;5009839;28;20026;-71
2022/03/14 07:22:03;;;;;;;17.45;13.80;;;;;;;-146.64;100.00;110659.00;5005905;28;20034;-71
2022/03/14 07:24:29;;;;;;;19.35;13.43;;;;;;;-146.64;100.00;109859.06;5000545;28;20029;-70
2022/03/14 07:26:54;;;;;;;20.00;13.50;;;;;;;-146.64;100.00;109325.84;5007400;28;20359;-70
2022/03/14 07:29:20;;;;;;;17.70;12.05;;;;;;;-146.64;100.00;108526.16;5012437;28;20036;-70
2022/03/14 07:31:45;;;;;;;20.83;12.82;;;;;;;-146.64;100.00;107460.16;5010258;28;20434;-70
2022/03/14 07:34:11;;;;;;;27.05;13.32;;;;;;;-146.64;100.00;106660.84;5010974;28;20030;-71
2022/03/14 07:36:37;;;;;;;18.75;12.95;;;;;;;-146.64;100.00;106927.25;5009989;28;20065;-70
2022/03/14 07:39:03;;;;;;;18.42;13.18;;;;;;;-146.64;100.00;106927.25;5010977;28;20026;-70
2022/03/14 07:41:28;;;;;;;20.88;12.98;;;;;;;-146.64;100.00;106660.84;5018402;28;20458;-70
2022/03/14 07:43:54;;;;;;;22.73;12.57;;;;;;;-146.64;100.00;106660.84;5023570;28;20104;-70
2022/03/14 07:46:19;;;;;;;19.20;12.90;;;;;;;-146.64;100.00;105861.69;5018243;28;20033;-70
2022/03/14 07:48:45;;;;;;;19.97;13.57;;;;;;;-146.64;100.00;105861.69;4995872;28;20117;-70
2022/03/14 07:51:10;;;;;;;20.98;13.68;;;;;;;-146.64;100.00;106660.84;5009671;28;20112;-71
2022/03/14 07:53:35;;;;;;;24.52;13.27;;;;;;;-146.64;100.00;106128.03;5009923;28;20465;-71
2022/03/14 07:56:01;;;;;;;20.10;12.63;;;;;;;-146.64;100.00;105595.31;5026934;28;20587;-71
2022/03/14 07:58:27;;;;;;;15.60;12.90;;;;;;;-146.64;100.00;104796.38;5009494;28;20084;-71
2022/03/14 08:00:54;;;;;;;24.23;12.37;;;;;;;-146.64;100.00;103997.56;4999527;28;20030;-71
2022/03/14 08:03:20;;;;;;;22.75;12.98;;;;;;;-146.64;100.00;104263.81;5013620;28;20519;-71
2022/03/14 08:05:48;;;;;;;18.33;12.98;;;;;;;-146.64;100.00;103731.34;5014480;28;20396;-71
2022/03/14 08:08:15;;;;;;;19.40;12.32;;;;;;;-146.64;100.00;102932.75;5007297;28;20103;-71
2022/03/14 08:10:41;;;;;;;18.48;12.25;;;;;;;-146.64;100.00;101602.13;5011820;28;20473;-71
2022/03/14 08:13:07;;;;;;;22.73;13.00;;;;;;;-146.64;100.00;101070.00;5022867;28;20022;-73
2022/03/14 08:15:33;;;;;;;21.27;12.93;;;;;;;-146.64;100.00;99474.03;5002403;28;20100;-74
2022/03/14 08:18:04;;;;;;;17.98;12.60;;;;;;;-146.64;100.00;99208.09;5011112;28;20057;-74
2022/03/14 08:20:31;;;;;;;23.83;13.25;;;;;;;-146.64;100.00;97347.03;5012028;28;20141;-74
2022/03/14 08:22:58;;;;;;;25.13;13.23;;;;;;;-146.64;100.00;97347.03;5021110;28;20025;-74
2022/03/14 08:25:24;;;;;;;23.15;13.50;;;;;;;-146.64;100.00;97612.84;5005296;28;20033;-73
2022/03/14 08:27:50;;;;;;;23.60;13.73;;;;;;;-146.64;100.00;97081.25;4993435;28;20026;-73
2022/03/14 08:30:15;;;;;;;19.17;12.30;;;;;;;-146.64;100.00;97081.25;5011019;28;20149;-73
2022/03/14 08:32:41;;;;;;;19.95;12.65;;;;;;;-146.64;100.00;96283.97;5024438;28;20033;-73
2022/03/14 08:35:08;;;;;;;22.67;14.25;;;;;;;-146.64;100.00;96549.72;5022412;28;20029;-73
2022/03/14 08:37:35;;;;;;;21.63;13.13;;;;;;;-146.64;100.00;96549.72;5019055;28;20060;-73
2022/03/14 08:40:01;;;;;;;20.55;13.60;;;;;;;-146.64;100.00;95486.84;5012900;28;20038;-73
2022/03/14 08:42:26;;;;;;;16.92;12.35;;;;;;;-146.64;100.00;93627.50;5017324;28;20542;-73
2022/03/14 08:44:51;;;;;;;27.90;13.73;;;;;;;-146.64;100.00;93893.06;5020431;28;20033;-73
2022/03/14 08:47:17;;;;;;;20.75;13.35;;;;;;;-146.64;100.00;92299.94;5001523;28;20519;-73
2022/03/14 08:49:42;;;;;;;21.50;12.30;;;;;;;-146.64;100.00;90707.41;5010816;28;20033;-73
2022/03/14 08:52:07;;;;;;;23.70;12.30;;;;;;;-146.64;100.00;90442.06;5011977;28;20507;-73
2022/03/14 08:54:33;;;;;;;24.30;12.85;;;;;;;-146.64;100.00;90442.06;5011266;28;20025;-73
2022/03/14 08:56:58;;;;;;;21.67;11.40;;;;;;;-146.64;100.00;88319.81;5009486;28;20056;-73
2022/03/14 08:59:24;;;;;;;18.08;12.00;;;;;;;-146.64;100.00;88054.63;5022339;28;20033;-73
2022/03/14 09:01:49;;;;;;;24.88;11.60;;;;;;;-146.64;100.00;86994.00;5014351;28;20102;-73
2022/03/14 09:04:14;;;;;;;27.87;11.40;;;;;;;-146.64;100.00;88054.63;4993814;28;20029;-73
2022/03/14 09:06:42;;;;;;;22.33;12.20;;;;;;;-146.64;100.00;89380.81;5011010;28;20054;-73
2022/03/14 09:09:07;;;;;;;26.92;11.85;;;;;;;-146.64;100.00;89380.81;5010139;28;20041;-73
2022/03/14 09:11:32;;;;;;;25.38;11.50;;;;;;;-146.64;100.00;88054.63;5007507;28;20396;-73
2022/03/14 09:13:58;;;;;;;18.73;10.60;;;;;;;-146.64;100.00;83548.88;5013652;28;20038;-73
2022/03/14 09:16:23;;;;;;;27.70;12.47;;;;;;;-146.64;100.00;81959.81;5016620;28;20072;-73
2022/03/14 09:18:49;;;;;;;18.92;10.13;;;;;;;-146.64;100.00;80106.72;5014799;28;20435;-73
2022/03/14 09:21:14;;;;;;;18.70;11.50;;;;;;;-146.64;100.00;79842.06;5018801;28;20030;-73
2022/03/14 09:23:42;;;;;;;24.05;11.73;;;;;;;-146.64;100.00;77725.41;5009416;28;20109;-73
2022/03/14 09:26:09;;;;;;;20.38;11.18;;;;;;;-146.64;100.00;81165.53;5029255;28;20075;-73
2022/03/14 09:28:36;;;;;;;26.88;12.05;;;;;;;-146.64;100.00;79048.19;5018264;28;20124;-73
2022/03/14 09:31:02;;;;;;;21.15;10.38;;;;;;;-146.64;100.00;81695.03;5009517;28;20057;-73
2022/03/14 09:33:27;;;;;;;25.83;11.23;;;;;;;-146.64;100.00;85668.59;5020918;28;20033;-73
2022/03/14 09:35:52;;;;;;;29.05;12.45;;;;;;;-146.64;100.00;85403.56;5030944;28;20064;-73
2022/03/14 09:38:18;;;;;;;23.53;11.97;;;;;;;-146.64;100.00;83813.78;5016590;28;20119;-73
2022/03/14 09:40:45;;;;;;;24.83;11.20;;;;;;;-146.64;100.00;82489.44;5014540;28;20589;-73
2022/03/14 09:43:14;;;;;;;23.83;11.68;;;;;;;-146.64;100.00;78783.59;5029306;28;20044;-73
2022/03/14 09:45:40;;;;;;;19.52;11.52;;;;;;;-146.64;100.00;76138.66;5029412;28;20121;-73
2022/03/14 09:48:08;;;;;;;24.00;10.63;;;;;;;-146.64;100.00;73495.47;5020029;28;20462;-73
2022/03/14 09:50:37;;;;;;;22.58;11.20;;;;;;;-146.64;100.00;71910.38;5019664;28;20030;-73
2022/03/14 09:53:07;;;;;;;23.50;11.20;;;;;;;-146.64;100.00;73231.22;4999826;28;20040;-73
2022/03/14 09:55:40;;;;;;;23.65;10.88;;;;;;;-146.64;100.00;69006.03;5018501;28;20036;-73
2022/03/14 09:58:07;;;;;;;22.17;10.77;;;;;;;-146.64;100.00;71646.25;5014460;28;20045;-73
2022/03/14 10:00:33;;;;;;;27.40;12.15;;;;;;;-146.64;100.00;70325.94;5018772;28;20026;-73
2022/03/14 10:02:58;;;;;;;21.93;10.17;;;;;;;-146.64;100.00;70325.94;5030008;28;20576;-73
2022/03/14 10:05:24;;;;;;;19.48;10.30;;;;;;;-146.64;100.00;71646.25;5028970;28;20061;-73
2022/03/14 10:07:50;;;;;;;21.35;11.07;;;;;;;-146.64;100.00;69797.91;5017504;28;20037;-73
2022/03/14 10:10:16;;;;;;;19.85;10.00;;;;;;;-146.64;100.00;70589.97;4992694;28;20030;-73
2022/03/14 10:12:45;;;;;;;18.80;11.07;;;;;;;-146.64;100.00;74552.53;5015861;28;20044;-73
2022/03/14 10:15:11;;;;;;;24.67;10.70;;;;;;;-146.64;100.00;72438.66;5021824;28;20030;-73
2022/03/14 10:17:36;;;;;;;16.03;10.20;;;;;;;-146.64;100.00;72967.03;5026168;28;20395;-73
2022/03/14 10:20:04;;;;;;;20.95;10.95;;;;;;;-146.64;100.00;71118.06;5033131;28;20447;-73
2022/03/14 10:22:37;;;;;;;20.85;11.13;;;;;;;-146.64;100.00;72438.66;5025771;28;20029;-73
2022/03/14 10:25:13;;;;;;;26.05;11.07;;;;;;;-146.64;100.00;71382.16;5020657;28;20037;-73
2022/03/14 10:27:43;;;;;;;20.60;11.73;;;;;;;-146.64;100.00;71382.16;5033388;28;20477;-73
2022/03/14 10:30:29;;;;;;;25.02;12.02;;;;;;;-146.64;100.00;68214.31;5033019;28;20160;-73
2022/03/14 10:33:08;;;;;;;25.67;11.10;;;;;;;-146.64;100.00;65840.06;5031920;28;20041;-73
2022/03/14 10:35:34;;;;;;;26.88;11.52;;;;;;;-146.64;100.00;67158.91;5020678;28;20078;-72
2022/03/14 10:38:02;;;;;;;19.08;10.40;;;;;;;-146.64;100.00;63467.22;5019326;28;20055;-72
2022/03/14 10:40:32;;;;;;;15.35;10.18;;;;;;;-146.64;100.00;57146.59;5014728;28;20487;-72
2022/03/14 10:42:58;;;;;;;22.63;10.32;;;;;;;-146.64;100.00;53727.13;5037126;28;20033;-72
2022/03/14 10:45:24;;;;;;;22.20;9.40;;;;;;;-146.64;100.00;48424.97;5031866;28;20472;-72
2022/03/14 10:47:54;;;;;;;24.48;10.07;;;;;;;-146.64;100.00;46392.63;5019541;28;20029;-72
2022/03/14 10:50:34;;;;;;;21.05;10.32;;;;;;;-146.64;100.00;45425.03;5012098;28;20032;-72
2022/03/14 10:53:06;;;;;;;22.92;9.57;;;;;;;-146.64;100.00;44201.50;5017191;28;20022;-72